الصفحة الرئيسية
METAR-TAF:

METAR-TAF

مطار :

هات ياي, تايلاند

دائرة عرض: 06-55N, خط طول: 100-26E, ارتفاع: 27 متر

مراقبة الطقس الحالي

تاريخ ووقت الإصدار 20 دقيقة قبل الساعة 01:30UTC
ريح 5 عقدة من الجنوب/الجنوب الشرقي, الاتجاه يتراوح بين الشرق و الغرب
درجة الحرارة 28°درجة مئوية
الرطوبة 79%
ضغط 1011 hPa
الرؤية 10 كم أو أكثر
غيوم قليلة على ارتفاع 2000 قدم
غيوم متفرقة على ارتفاع 10000 قدم

METAR: VTSS 190130Z 15005KT 090V260 9999 FEW020 SCT100 28/24 Q1011 NOSIG

زمن: 08:50 (01:50 UTC)

توقعات

تاريخ ووقت الإصدار 2ساعات و 50 دقيقة قبل الساعة 23:00UTC
التوقعات صالحة من19 الساعة 00 UTC إلى 19 الساعة 24 UTC
ريح 6 عقدة من الغرب/الجنوب الغربي
الرؤية: 8000 متر
غيوم قليلة على ارتفاع 2000 قدم
مؤقت
من 19 الساعة 05 UTC إلى 19 الساعة 15 UTC
ريح 15 عقدةمن اتجاهات متغيرة تتزايد حتى 25 عقدة
الرؤية: 3000 متر
غيوم قليلة على ارتفاع 1600 قدم, مزنة ركامية.
غيوم متفرقة على ارتفاع 1800 قدم
غيوم مفككة على ارتفاع 10000 قدم
عاصفة رعدية, مطر

TAF: VTSS 182300Z 1900/1924 25006KT 8000 FEW020 TEMPO 1905/1915 VRB15G25KT 3000 TSRA FEW016CB SCT018 BKN100

أرصاد الطقس والتوقعات من أكثر من 4000 مطار (تقارير الطقس للمطار METAR والتنبؤ بالطقس بالمطارTAF).

المحطات المتاحة هي النقط الصفراء والحمراء على الخريطة.

حرك المؤشر فوق النقطة لمعرفة اسم المحطة.

ثم انقر لمعرفة أرصاد وتوقعات الطقس.

لتغيير الخارطة: اضغط على الأزرار الخضراء مع رمز الصليب الأسود للتكبير. على الزر الأخضر مع شرطة للتصغير، أو على الأسهم الخضراء للخرائط المجاورة.


METAR-TAF: